createdAt,value
2018-05-11T00:00:06.985Z,22.11
2018-05-11T00:00:38.968Z,22.05
2018-05-11T00:01:10.971Z,22.04
2018-05-11T00:01:43.003Z,22.05
2018-05-11T00:02:15.084Z,22.08
2018-05-11T00:02:47.228Z,22.02
2018-05-11T00:03:19.270Z,22.02
2018-05-11T00:03:51.321Z,22.05
2018-05-11T00:04:23.373Z,22.02
2018-05-11T00:04:55.387Z,21.97
2018-05-11T00:05:27.426Z,22.05
2018-05-11T00:05:59.473Z,22
2018-05-11T00:06:31.514Z,21.97
2018-05-11T00:07:03.565Z,22.02
2018-05-11T00:07:35.599Z,21.99
2018-05-11T00:08:07.597Z,22.02
2018-05-11T00:08:39.601Z,22.04
2018-05-11T00:09:11.750Z,21.94
2018-05-11T00:09:43.871Z,21.99
2018-05-11T00:10:15.892Z,22
2018-05-11T00:10:47.924Z,21.99
2018-05-11T00:11:19.939Z,21.99
2018-05-11T00:11:52.519Z,22
2018-05-11T00:12:25.386Z,22.02
2018-05-11T00:12:57.434Z,21.99
2018-05-11T00:13:29.461Z,21.97
2018-05-11T00:14:01.497Z,21.97
2018-05-11T00:14:33.507Z,21.96
2018-05-11T00:15:05.561Z,21.9
2018-05-11T00:15:37.614Z,21.94
2018-05-11T00:16:09.648Z,22
2018-05-11T00:16:42.481Z,22.04
2018-05-11T00:17:14.512Z,21.96
2018-05-11T00:17:46.518Z,21.99
2018-05-11T00:18:18.505Z,21.96
2018-05-11T00:18:50.536Z,21.99
2018-05-11T00:19:22.567Z,21.97
2018-05-11T00:19:54.600Z,21.99
2018-05-11T00:20:26.646Z,21.93
2018-05-11T00:20:58.672Z,21.94
2018-05-11T00:21:30.813Z,21.94
2018-05-11T00:22:02.815Z,21.94
2018-05-11T00:22:34.845Z,21.93
2018-05-11T00:23:06.865Z,22
2018-05-11T00:23:39.831Z,21.93
2018-05-11T00:24:11.865Z,21.96
2018-05-11T00:24:43.908Z,21.97
2018-05-11T00:25:15.954Z,21.92
2018-05-11T00:25:47.973Z,21.96
2018-05-11T00:26:20.047Z,21.86
2018-05-11T00:26:52.068Z,21.93
2018-05-11T00:27:24.101Z,21.93
2018-05-11T00:27:56.115Z,21.96
2018-05-11T00:28:28.263Z,21.94
2018-05-11T00:29:00.273Z,21.89
2018-05-11T00:29:32.290Z,21.89
2018-05-11T00:30:04.331Z,21.9
2018-05-11T00:30:36.394Z,21.96
2018-05-11T00:31:08.428Z,21.9
2018-05-11T00:31:40.440Z,21.93
2018-05-11T00:32:12.506Z,21.92
2018-05-11T00:32:44.562Z,21.97
2018-05-11T00:33:16.602Z,21.92
2018-05-11T00:33:48.596Z,21.93
2018-05-11T00:34:20.663Z,21.9
2018-05-11T00:34:52.708Z,21.8
2018-05-11T00:35:24.710Z,21.96
2018-05-11T00:35:56.879Z,21.94
2018-05-11T00:36:28.891Z,21.92
2018-05-11T00:37:00.937Z,21.89
2018-05-11T00:37:32.938Z,21.89
2018-05-11T00:38:05.846Z,21.92
2018-05-11T00:38:37.895Z,21.92
2018-05-11T00:39:09.947Z,21.85
2018-05-11T00:39:41.984Z,21.92
2018-05-11T00:40:13.986Z,21.92
2018-05-11T00:40:46.107Z,21.89
2018-05-11T00:41:18.126Z,21.86
2018-05-11T00:41:50.116Z,21.93
2018-05-11T00:42:22.165Z,21.9
2018-05-11T00:42:54.266Z,21.89
2018-05-11T00:43:26.275Z,21.89
2018-05-11T00:43:58.268Z,21.89
2018-05-11T00:44:30.291Z,21.92
2018-05-11T00:45:02.281Z,21.85
2018-05-11T00:45:34.311Z,21.9
2018-05-11T00:46:06.481Z,21.85
2018-05-11T00:46:38.548Z,21.83
2018-05-11T00:47:10.540Z,21.9
2018-05-11T00:47:42.615Z,21.86
2018-05-11T00:48:14.648Z,21.89
2018-05-11T00:48:46.698Z,21.89
2018-05-11T00:49:18.687Z,21.85
2018-05-11T00:49:51.437Z,21.9
2018-05-11T00:50:23.423Z,21.9
2018-05-11T00:50:55.501Z,21.85
2018-05-11T00:51:27.715Z,21.8
2018-05-11T00:51:59.712Z,21.82
2018-05-11T00:52:31.744Z,21.9
2018-05-11T00:53:03.785Z,21.8
2018-05-11T00:53:35.797Z,21.74
2018-05-11T00:54:07.829Z,21.82
2018-05-11T00:54:39.847Z,21.85
2018-05-11T00:55:11.876Z,21.83
2018-05-11T00:55:43.881Z,21.86
2018-05-11T00:56:15.902Z,21.9
2018-05-11T00:56:47.929Z,21.8
2018-05-11T00:57:19.994Z,21.78
2018-05-11T00:57:52.022Z,21.85
2018-05-11T00:58:24.041Z,21.78
2018-05-11T00:58:56.064Z,21.83
2018-05-11T00:59:28.170Z,21.86
2018-05-11T01:00:00.195Z,21.8
2018-05-11T01:00:32.217Z,21.83
2018-05-11T01:01:04.310Z,21.89
2018-05-11T01:01:36.334Z,21.77
2018-05-11T01:02:08.389Z,21.83
2018-05-11T01:02:40.415Z,21.83
2018-05-11T01:03:12.461Z,21.76
2018-05-11T01:03:44.496Z,21.83
2018-05-11T01:04:16.553Z,21.76
2018-05-11T01:04:48.607Z,21.76
2018-05-11T01:05:20.640Z,21.76
2018-05-11T01:05:52.675Z,21.86
2018-05-11T01:06:24.691Z,21.77
2018-05-11T01:06:56.741Z,21.86
2018-05-11T01:07:28.766Z,21.78
2018-05-11T01:08:00.808Z,21.86
2018-05-11T01:08:32.822Z,21.78
2018-05-11T01:09:04.953Z,21.8
2018-05-11T01:09:36.968Z,21.82
2018-05-11T01:10:09.637Z,21.82
2018-05-11T01:10:41.713Z,21.78
2018-05-11T01:11:13.762Z,21.78
2018-05-11T01:11:45.779Z,21.82
2018-05-11T01:12:17.858Z,21.85
2018-05-11T01:12:49.909Z,21.78
2018-05-11T01:13:22.043Z,21.76
2018-05-11T01:13:54.065Z,21.76
2018-05-11T01:14:26.142Z,21.78
2018-05-11T01:14:58.185Z,21.78
2018-05-11T01:15:30.200Z,21.8
2018-05-11T01:16:02.250Z,21.77
2018-05-11T01:16:34.289Z,21.85
2018-05-11T01:17:06.280Z,21.78
2018-05-11T01:17:38.321Z,21.8
2018-05-11T01:18:10.335Z,21.82
2018-05-11T01:18:42.389Z,21.83
2018-05-11T01:19:14.501Z,21.85
2018-05-11T01:19:46.528Z,21.78
2018-05-11T01:20:18.561Z,21.85
2018-05-11T01:20:50.667Z,21.82
2018-05-11T01:21:22.645Z,21.73
2018-05-11T01:21:54.641Z,21.74
2018-05-11T01:22:26.695Z,21.74
2018-05-11T01:22:58.787Z,21.76
2018-05-11T01:23:30.795Z,21.77
2018-05-11T01:24:02.815Z,21.89
2018-05-11T01:24:34.871Z,21.76
2018-05-11T01:25:06.903Z,21.74
2018-05-11T01:25:38.935Z,21.76
2018-05-11T01:26:10.985Z,21.73
2018-05-11T01:26:43.141Z,21.71
2018-05-11T01:27:15.172Z,21.78
2018-05-11T01:27:47.187Z,21.74
2018-05-11T01:28:19.337Z,21.73
2018-05-11T01:28:51.390Z,21.73
2018-05-11T01:29:23.424Z,21.71
2018-05-11T01:29:55.452Z,21.82
2018-05-11T01:30:27.462Z,21.77
2018-05-11T01:30:59.485Z,21.78
2018-05-11T01:31:31.507Z,21.76
2018-05-11T01:32:03.550Z,21.76
2018-05-11T01:32:35.591Z,21.74
2018-05-11T01:33:07.620Z,21.76
2018-05-11T01:33:39.696Z,21.73
2018-05-11T01:34:11.723Z,21.7
2018-05-11T01:34:43.726Z,21.77
2018-05-11T01:35:15.760Z,21.68
2018-05-11T01:35:47.751Z,21.76
2018-05-11T01:36:19.820Z,21.73
2018-05-11T01:36:51.921Z,21.68
2018-05-11T01:37:23.951Z,21.73
2018-05-11T01:37:55.971Z,21.78
2018-05-11T01:38:27.985Z,21.73
2018-05-11T01:39:00.107Z,21.71
2018-05-11T01:39:32.978Z,21.76
2018-05-11T01:40:04.983Z,21.62
2018-05-11T01:40:37.002Z,21.77
2018-05-11T01:41:09.034Z,21.78
2018-05-11T01:41:41.145Z,21.71
2018-05-11T01:42:13.251Z,21.7
2018-05-11T01:42:45.382Z,21.71
2018-05-11T01:43:17.370Z,21.8
2018-05-11T01:43:49.393Z,21.73
2018-05-11T01:44:21.409Z,21.64
2018-05-11T01:44:53.401Z,21.67
2018-05-11T01:45:25.443Z,21.76
2018-05-11T01:45:57.508Z,21.74
2018-05-11T01:46:29.538Z,21.66
2018-05-11T01:47:01.564Z,21.7
2018-05-11T01:47:34.545Z,21.73
2018-05-11T01:48:06.596Z,21.78
2018-05-11T01:48:38.624Z,21.71
2018-05-11T01:49:10.638Z,21.74
2018-05-11T01:49:42.664Z,21.74
2018-05-11T01:50:14.750Z,21.66
2018-05-11T01:50:46.783Z,21.73
2018-05-11T01:51:18.838Z,21.68
2018-05-11T01:51:51.367Z,21.62
2018-05-11T01:52:23.366Z,21.67
2018-05-11T01:52:55.399Z,21.68
2018-05-11T01:53:27.437Z,21.71
2018-05-11T01:53:59.508Z,21.67
2018-05-11T01:54:31.512Z,21.64
2018-05-11T01:55:03.528Z,21.68
2018-05-11T01:55:35.572Z,21.64
2018-05-11T01:56:07.690Z,21.68
2018-05-11T01:56:39.778Z,21.64
2018-05-11T01:57:11.782Z,21.61
2018-05-11T01:57:43.856Z,21.73
2018-05-11T01:58:16.676Z,21.68
2018-05-11T01:58:48.713Z,21.7
2018-05-11T01:59:20.715Z,21.61
2018-05-11T01:59:52.762Z,21.64
2018-05-11T02:00:24.780Z,21.66
2018-05-11T02:00:56.809Z,21.62
2018-05-11T02:01:28.838Z,21.68
2018-05-11T02:02:00.903Z,21.66
2018-05-11T02:02:32.936Z,21.67
2018-05-11T02:03:04.990Z,21.68
2018-05-11T02:03:37.155Z,21.64
2018-05-11T02:04:09.185Z,21.67
2018-05-11T02:04:41.225Z,21.66
2018-05-11T02:05:13.301Z,21.66
2018-05-11T02:05:45.326Z,21.66
2018-05-11T02:06:17.333Z,21.62
2018-05-11T02:06:49.369Z,21.67
2018-05-11T02:07:21.391Z,21.66
2018-05-11T02:07:53.435Z,21.61
2018-05-11T02:08:25.591Z,21.64
2018-05-11T02:08:57.783Z,21.66
2018-05-11T02:09:29.856Z,21.64
2018-05-11T02:10:01.910Z,21.67
2018-05-11T02:10:33.991Z,21.56
2018-05-11T02:11:06.020Z,21.67
2018-05-11T02:11:38.102Z,21.59
2018-05-11T02:12:10.303Z,21.59
2018-05-11T02:12:42.327Z,21.67
2018-05-11T02:13:14.361Z,21.59
2018-05-11T02:13:46.381Z,21.66
2018-05-11T02:14:18.459Z,21.59
2018-05-11T02:14:50.487Z,21.62
2018-05-11T02:15:22.519Z,21.64
2018-05-11T02:15:54.558Z,21.58
2018-05-11T02:16:26.591Z,21.58
2018-05-11T02:16:58.610Z,21.58
2018-05-11T02:17:30.656Z,21.56
2018-05-11T02:18:02.713Z,21.59
2018-05-11T02:18:34.777Z,21.64
2018-05-11T02:19:06.848Z,21.53
2018-05-11T02:19:38.852Z,21.56
2018-05-11T02:20:10.891Z,21.61
2018-05-11T02:20:42.904Z,21.64
2018-05-11T02:21:14.942Z,21.59
2018-05-11T02:21:46.932Z,21.51
2018-05-11T02:22:18.982Z,21.55
2018-05-11T02:22:51.023Z,21.56
2018-05-11T02:23:23.022Z,21.51
2018-05-11T02:23:55.035Z,21.56
2018-05-11T02:24:27.164Z,21.55
2018-05-11T02:24:59.240Z,21.48
2018-05-11T02:25:31.295Z,21.56
2018-05-11T02:26:03.465Z,21.51
2018-05-11T02:26:35.385Z,21.49
2018-05-11T02:27:07.414Z,21.55
2018-05-11T02:27:39.436Z,21.55
2018-05-11T02:28:11.479Z,21.55
2018-05-11T02:28:43.508Z,21.55
2018-05-11T02:29:15.498Z,21.62
2018-05-11T02:29:47.556Z,21.55
2018-05-11T02:30:19.752Z,21.51
2018-05-11T02:30:51.837Z,21.55
2018-05-11T02:31:23.900Z,21.61
2018-05-11T02:31:55.917Z,21.53
2018-05-11T02:32:27.963Z,21.48
2018-05-11T02:33:00.061Z,21.53
2018-05-11T02:33:32.073Z,21.58
2018-05-11T02:34:04.030Z,21.59
2018-05-11T02:34:36.081Z,21.55
2018-05-11T02:35:08.108Z,21.51
2018-05-11T02:35:40.140Z,21.55
2018-05-11T02:36:13.119Z,21.58
2018-05-11T02:36:45.174Z,21.45
2018-05-11T02:37:17.208Z,21.52
2018-05-11T02:37:49.220Z,21.53
2018-05-11T02:38:21.267Z,21.43
2018-05-11T02:38:53.299Z,21.45
2018-05-11T02:39:25.327Z,21.45
2018-05-11T02:39:57.296Z,21.48
2018-05-11T02:40:29.349Z,21.46
2018-05-11T02:41:01.395Z,21.41
2018-05-11T02:41:33.447Z,21.45
2018-05-11T02:42:05.458Z,21.46
2018-05-11T02:42:37.504Z,21.46
2018-05-11T02:43:09.536Z,21.49
2018-05-11T02:43:41.560Z,21.46
2018-05-11T02:44:13.579Z,21.49
2018-05-11T02:44:45.654Z,21.53
2018-05-11T02:45:17.686Z,21.46
2018-05-11T02:45:49.709Z,21.53
2018-05-11T02:46:21.734Z,21.53
2018-05-11T02:46:53.838Z,21.48
2018-05-11T02:47:25.868Z,21.48
2018-05-11T02:47:57.921Z,21.53
2018-05-11T02:48:30.060Z,21.48
2018-05-11T02:49:02.073Z,21.49
2018-05-11T02:49:34.205Z,21.4
2018-05-11T02:50:06.202Z,21.43
2018-05-11T02:50:38.330Z,21.48
2018-05-11T02:51:10.331Z,21.4
2018-05-11T02:51:42.345Z,21.51
2018-05-11T02:52:14.370Z,21.38
2018-05-11T02:52:46.380Z,21.38
2018-05-11T02:53:18.401Z,21.38
2018-05-11T02:53:50.419Z,21.43
2018-05-11T02:54:22.573Z,21.38
2018-05-11T02:54:54.611Z,21.46
2018-05-11T02:55:26.620Z,21.37
2018-05-11T02:55:58.677Z,21.36
2018-05-11T02:56:30.702Z,21.38
2018-05-11T02:57:02.756Z,21.34
2018-05-11T02:57:34.809Z,21.34
2018-05-11T02:58:06.909Z,21.43
2018-05-11T02:58:39.783Z,21.4
2018-05-11T02:59:11.863Z,21.37
2018-05-11T02:59:44.016Z,21.43
2018-05-11T03:00:16.038Z,21.36
2018-05-11T03:00:48.088Z,21.43
2018-05-11T03:01:20.127Z,21.38
2018-05-11T03:01:52.162Z,21.38
2018-05-11T03:02:24.170Z,21.38
2018-05-11T03:02:56.214Z,21.34
2018-05-11T03:03:28.251Z,21.36
2018-05-11T03:04:00.293Z,21.38
2018-05-11T03:04:32.307Z,21.37
2018-05-11T03:05:04.340Z,21.36
2018-05-11T03:05:36.363Z,21.38
2018-05-11T03:06:08.396Z,21.36
2018-05-11T03:06:40.374Z,21.37
2018-05-11T03:07:12.436Z,21.33
2018-05-11T03:07:44.462Z,21.37
2018-05-11T03:08:16.476Z,21.38
2018-05-11T03:08:48.982Z,21.37
2018-05-11T03:09:21.020Z,21.36
2018-05-11T03:09:53.045Z,21.37
2018-05-11T03:10:25.175Z,21.33
2018-05-11T03:10:57.176Z,21.34
2018-05-11T03:11:29.189Z,21.36
2018-05-11T03:12:01.253Z,21.3
2018-05-11T03:12:33.281Z,21.28
2018-05-11T03:13:05.313Z,21.34
2018-05-11T03:13:37.355Z,21.36
2018-05-11T03:14:09.404Z,21.31
2018-05-11T03:14:41.396Z,21.33
2018-05-11T03:15:13.407Z,21.33
2018-05-11T03:15:45.443Z,21.33
2018-05-11T03:16:17.476Z,21.36
2018-05-11T03:16:49.582Z,21.33
2018-05-11T03:17:21.591Z,21.34
2018-05-11T03:17:53.654Z,21.36
2018-05-11T03:18:25.776Z,21.37
2018-05-11T03:18:58.153Z,21.33
2018-05-11T03:19:30.202Z,21.36
2018-05-11T03:20:02.166Z,21.31
2018-05-11T03:20:34.219Z,21.27
2018-05-11T03:21:06.331Z,21.28
2018-05-11T03:21:38.387Z,21.3
2018-05-11T03:22:10.407Z,21.27
2018-05-11T03:22:42.480Z,21.23
2018-05-11T03:23:14.491Z,21.27
2018-05-11T03:23:46.508Z,21.23
2018-05-11T03:24:18.558Z,21.3
2018-05-11T03:24:50.708Z,21.25
2018-05-11T03:25:22.730Z,21.27
2018-05-11T03:25:54.748Z,21.25
2018-05-11T03:26:26.755Z,21.34
2018-05-11T03:26:58.838Z,21.31
2018-05-11T03:27:30.845Z,21.28
2018-05-11T03:28:02.854Z,21.27
2018-05-11T03:28:34.880Z,21.3
2018-05-11T03:29:06.881Z,21.22
2018-05-11T03:29:38.917Z,21.25
2018-05-11T03:30:10.943Z,21.3
2018-05-11T03:30:43.012Z,21.27
2018-05-11T03:31:15.089Z,21.27
2018-05-11T03:31:47.122Z,21.23
2018-05-11T03:32:19.155Z,21.22
2018-05-11T03:32:51.209Z,21.34
2018-05-11T03:33:23.224Z,21.21
2018-05-11T03:33:55.254Z,21.25
2018-05-11T03:34:27.284Z,21.27
2018-05-11T03:34:59.343Z,21.3
2018-05-11T03:35:31.380Z,21.28
2018-05-11T03:36:03.458Z,21.25
2018-05-11T03:36:35.503Z,21.27
2018-05-11T03:37:07.513Z,21.22
2018-05-11T03:37:39.541Z,21.31
2018-05-11T03:38:11.553Z,21.19
2018-05-11T03:38:43.559Z,21.23
2018-05-11T03:39:15.544Z,21.21
2018-05-11T03:39:47.611Z,21.16
2018-05-11T03:40:19.599Z,21.33
2018-05-11T03:40:51.655Z,21.23
2018-05-11T03:41:23.652Z,21.22
2018-05-11T03:41:55.685Z,21.28
2018-05-11T03:42:27.731Z,21.21
2018-05-11T03:42:59.886Z,21.16
2018-05-11T03:43:31.937Z,21.25
2018-05-11T03:44:03.975Z,21.21
2018-05-11T03:44:36.011Z,21.21
2018-05-11T03:45:08.043Z,21.23
2018-05-11T03:45:40.103Z,21.25
2018-05-11T03:46:12.157Z,21.27
2018-05-11T03:46:44.169Z,21.3
2018-05-11T03:47:16.177Z,21.22
2018-05-11T03:47:48.213Z,21.21
2018-05-11T03:48:20.280Z,21.16
2018-05-11T03:48:52.308Z,21.18
2018-05-11T03:49:24.336Z,21.18
2018-05-11T03:49:56.377Z,21.16
2018-05-11T03:50:28.424Z,21.21
2018-05-11T03:51:00.521Z,21.23
2018-05-11T03:51:32.654Z,21.16
2018-05-11T03:52:04.656Z,21.21
2018-05-11T03:52:36.686Z,21.16
2018-05-11T03:53:08.727Z,21.22
2018-05-11T03:53:40.735Z,21.21
2018-05-11T03:54:12.782Z,21.23
2018-05-11T03:54:44.807Z,21.22
2018-05-11T03:55:16.859Z,21.22
2018-05-11T03:55:48.882Z,21.21
2018-05-11T03:56:20.913Z,21.19
2018-05-11T03:56:52.980Z,21.18
2018-05-11T03:57:25.001Z,21.22
2018-05-11T03:57:57.015Z,21.18
2018-05-11T03:58:29.020Z,21.22
2018-05-11T03:59:01.056Z,21.22
2018-05-11T03:59:33.083Z,21.22
2018-05-11T04:00:05.191Z,21.33
2018-05-11T04:00:37.289Z,21.13
2018-05-11T04:01:09.324Z,21.25
2018-05-11T04:01:41.483Z,21.16
2018-05-11T04:02:13.537Z,21.23
2018-05-11T04:02:45.546Z,21.22
2018-05-11T04:03:17.586Z,21.18
2018-05-11T04:03:49.613Z,21.16
2018-05-11T04:04:21.648Z,21.22
2018-05-11T04:04:53.669Z,21.19
2018-05-11T04:05:25.686Z,21.22
2018-05-11T04:05:57.740Z,21.18
2018-05-11T04:06:29.761Z,21.18
2018-05-11T04:07:01.798Z,21.21
2018-05-11T04:07:33.866Z,21.21
2018-05-11T04:08:05.889Z,21.18
2018-05-11T04:08:37.960Z,21.22
2018-05-11T04:09:09.964Z,21.21
2018-05-11T04:09:42.108Z,21.18
2018-05-11T04:10:14.144Z,21.18
2018-05-11T04:10:46.204Z,21.19
2018-05-11T04:11:18.239Z,21.23
2018-05-11T04:11:50.244Z,21.22
2018-05-11T04:12:22.270Z,21.22
2018-05-11T04:12:54.300Z,21.22
2018-05-11T04:13:26.423Z,21.23
2018-05-11T04:13:58.428Z,21.16
2018-05-11T04:14:30.486Z,21.15
2018-05-11T04:15:02.515Z,21.22
2018-05-11T04:15:34.563Z,21.18
2018-05-11T04:16:06.570Z,21.21
2018-05-11T04:16:38.649Z,21.16
2018-05-11T04:17:10.763Z,21.22
2018-05-11T04:17:42.765Z,21.22
2018-05-11T04:18:14.794Z,21.16
2018-05-11T04:18:46.843Z,21.22
2018-05-11T04:19:18.841Z,21.19
2018-05-11T04:19:50.822Z,21.21
2018-05-11T04:20:22.867Z,21.21
2018-05-11T04:20:54.882Z,21.22
2018-05-11T04:21:26.874Z,21.22
2018-05-11T04:21:58.922Z,21.22
2018-05-11T04:22:31.088Z,21.18
2018-05-11T04:23:03.145Z,21.22
2018-05-11T04:23:35.191Z,21.18
2018-05-11T04:24:07.224Z,21.23
2018-05-11T04:24:39.259Z,21.19
2018-05-11T04:25:11.311Z,21.22
2018-05-11T04:25:43.356Z,21.12
2018-05-11T04:26:15.406Z,21.21
2018-05-11T04:26:47.460Z,21.15
2018-05-11T04:27:19.463Z,21.18
2018-05-11T04:27:51.518Z,21.21
2018-05-11T04:28:23.564Z,21.22
2018-05-11T04:28:55.588Z,21.15
2018-05-11T04:29:27.679Z,21.19
2018-05-11T04:30:03.544Z,21.15
2018-05-11T04:30:35.581Z,21.19
2018-05-11T04:31:07.748Z,21.19
2018-05-11T04:31:39.756Z,21.21
2018-05-11T04:32:11.770Z,21.19
2018-05-11T04:32:43.800Z,21.21
2018-05-11T04:33:15.929Z,21.13
2018-05-11T04:33:47.927Z,21.16
2018-05-11T04:34:19.966Z,21.21
2018-05-11T04:34:51.997Z,21.19
2018-05-11T04:35:24.103Z,21.19
2018-05-11T04:35:56.134Z,21.23
2018-05-11T04:36:28.180Z,21.21
2018-05-11T04:37:00.262Z,21.19
2018-05-11T04:37:32.239Z,21.21
2018-05-11T04:38:04.244Z,21.25
2018-05-11T04:38:36.275Z,21.22
2018-05-11T04:39:08.444Z,21.21
2018-05-11T04:39:40.557Z,21.22
2018-05-11T04:40:12.575Z,21.21
2018-05-11T04:40:44.544Z,21.25
2018-05-11T04:41:16.636Z,21.21
2018-05-11T04:41:48.709Z,21.19
2018-05-11T04:42:20.732Z,21.18
2018-05-11T04:42:52.793Z,21.16
2018-05-11T04:43:24.818Z,21.19
2018-05-11T04:43:56.813Z,21.18
2018-05-11T04:44:28.894Z,21.21
2018-05-11T04:45:00.914Z,21.21
2018-05-11T04:45:32.928Z,21.19
2018-05-11T04:46:04.997Z,21.18
2018-05-11T04:46:37.019Z,21.25
2018-05-11T04:47:09.063Z,21.25
2018-05-11T04:47:41.074Z,21.3
2018-05-11T04:48:13.116Z,21.34
2018-05-11T04:48:45.991Z,21.25
2018-05-11T04:49:17.976Z,21.21
2018-05-11T04:49:49.995Z,21.23
2018-05-11T04:50:22.047Z,21.23
2018-05-11T04:50:54.169Z,21.22
2018-05-11T04:51:26.165Z,21.27
2018-05-11T04:51:58.974Z,21.23
2018-05-11T04:52:31.026Z,21.21
2018-05-11T04:53:03.064Z,21.21
2018-05-11T04:53:35.077Z,21.23
2018-05-11T04:54:07.075Z,21.23
2018-05-11T04:54:39.093Z,21.25
2018-05-11T04:55:11.138Z,21.3
2018-05-11T04:55:43.843Z,21.23
2018-05-11T04:56:16.661Z,21.28
2018-05-11T04:56:48.730Z,21.27
2018-05-11T04:57:20.789Z,21.27
2018-05-11T04:57:52.867Z,21.3
2018-05-11T04:58:24.881Z,21.3
2018-05-11T04:58:56.920Z,21.27
2018-05-11T04:59:28.937Z,21.3
2018-05-11T05:00:00.983Z,21.27
2018-05-11T05:00:32.984Z,21.27
2018-05-11T05:01:05.080Z,21.28
2018-05-11T05:01:37.098Z,21.33
2018-05-11T05:02:09.094Z,21.33
2018-05-11T05:02:41.107Z,21.34
2018-05-11T05:03:13.263Z,21.34
2018-05-11T05:03:45.312Z,21.33
2018-05-11T05:04:17.367Z,21.34
2018-05-11T05:04:49.436Z,21.31
2018-05-11T05:05:21.565Z,21.34
2018-05-11T05:05:53.612Z,21.36
2018-05-11T05:06:25.628Z,21.34
2018-05-11T05:06:57.718Z,21.34
2018-05-11T05:07:29.719Z,21.36
2018-05-11T05:08:01.792Z,21.38
2018-05-11T05:08:33.810Z,21.36
2018-05-11T05:09:05.859Z,21.31
2018-05-11T05:09:37.894Z,21.36
2018-05-11T05:10:09.913Z,21.34
2018-05-11T05:10:41.979Z,21.34
2018-05-11T05:11:13.998Z,21.37
2018-05-11T05:11:46.031Z,21.34
2018-05-11T05:12:18.136Z,21.33
2018-05-11T05:12:50.194Z,21.38
2018-05-11T05:13:22.217Z,21.34
2018-05-11T05:13:54.267Z,21.48
2018-05-11T05:14:26.296Z,21.41
2018-05-11T05:14:58.331Z,21.4
2018-05-11T05:15:30.385Z,21.34
2018-05-11T05:16:02.415Z,21.4
2018-05-11T05:16:34.471Z,21.4
2018-05-11T05:17:06.472Z,21.43
2018-05-11T05:17:38.504Z,21.36
2018-05-11T05:18:10.548Z,21.37
2018-05-11T05:18:42.643Z,21.43
2018-05-11T05:19:14.732Z,21.48
2018-05-11T05:19:46.767Z,21.53
2018-05-11T05:20:18.813Z,21.52
2018-05-11T05:20:50.834Z,21.49
2018-05-11T05:21:22.881Z,21.46
2018-05-11T05:21:54.916Z,21.45
2018-05-11T05:22:26.947Z,21.59
2018-05-11T05:22:58.995Z,21.52
2018-05-11T05:23:31.037Z,21.48
2018-05-11T05:24:03.087Z,21.58
2018-05-11T05:24:35.133Z,21.56
2018-05-11T05:25:07.170Z,21.53
2018-05-11T05:25:39.144Z,21.53
2018-05-11T05:26:11.176Z,21.56
2018-05-11T05:26:43.203Z,21.56
2018-05-11T05:27:15.356Z,21.52
2018-05-11T05:27:47.336Z,21.52
2018-05-11T05:28:19.393Z,21.51
2018-05-11T05:28:51.430Z,21.58
2018-05-11T05:29:23.488Z,21.62
2018-05-11T05:29:55.625Z,21.66
2018-05-11T05:30:27.654Z,21.59
2018-05-11T05:30:59.754Z,21.61
2018-05-11T05:31:31.806Z,21.64
2018-05-11T05:32:03.862Z,21.67
2018-05-11T05:32:35.905Z,21.66
2018-05-11T05:33:08.024Z,21.61
2018-05-11T05:33:40.114Z,21.61
2018-05-11T05:34:12.176Z,21.59
2018-05-11T05:34:44.191Z,21.58
2018-05-11T05:35:16.248Z,21.67
2018-05-11T05:35:48.343Z,21.64
2018-05-11T05:36:20.370Z,21.66
2018-05-11T05:36:52.384Z,21.7
2018-05-11T05:37:24.425Z,21.68
2018-05-11T05:37:56.404Z,21.61
2018-05-11T05:38:28.440Z,21.62
2018-05-11T05:39:00.514Z,21.55
2018-05-11T05:39:33.137Z,21.64
2018-05-11T05:40:05.175Z,21.64
2018-05-11T05:40:37.193Z,21.7
2018-05-11T05:41:09.237Z,21.64
2018-05-11T05:41:41.268Z,21.64
2018-05-11T05:42:13.305Z,21.62
2018-05-11T05:42:45.358Z,21.68
2018-05-11T05:43:17.377Z,21.62
2018-05-11T05:43:49.408Z,21.66
2018-05-11T05:44:21.540Z,21.67
2018-05-11T05:44:53.618Z,21.67
2018-05-11T05:45:25.650Z,21.77
2018-05-11T05:45:57.701Z,21.8
2018-05-11T05:46:29.744Z,21.71
2018-05-11T05:47:01.779Z,21.74
2018-05-11T05:47:33.807Z,21.76
2018-05-11T05:48:05.883Z,21.8
2018-05-11T05:48:38.009Z,21.74
2018-05-11T05:49:10.015Z,21.76
2018-05-11T05:49:42.033Z,21.78
2018-05-11T05:50:14.051Z,21.77
2018-05-11T05:50:46.115Z,21.76
2018-05-11T05:51:18.137Z,21.82
2018-05-11T05:51:50.153Z,21.8
2018-05-11T05:52:22.199Z,21.8
2018-05-11T05:52:54.312Z,21.8
2018-05-11T05:53:26.323Z,21.8
2018-05-11T05:53:58.353Z,21.85
2018-05-11T05:54:30.404Z,21.82
2018-05-11T05:55:02.564Z,21.77
2018-05-11T05:55:34.676Z,21.89
2018-05-11T05:56:06.698Z,21.86
2018-05-11T05:56:38.729Z,21.92
2018-05-11T05:57:10.839Z,21.89
2018-05-11T05:57:42.873Z,21.9
2018-05-11T05:58:14.912Z,21.96
2018-05-11T05:58:46.936Z,21.94
2018-05-11T05:59:18.979Z,21.93
2018-05-11T05:59:51.099Z,22
2018-05-11T06:00:23.094Z,21.94
2018-05-11T06:00:55.135Z,22.07
2018-05-11T06:01:27.141Z,22
2018-05-11T06:01:59.147Z,22.07
2018-05-11T06:02:31.154Z,22.07
2018-05-11T06:03:03.353Z,22.11
2018-05-11T06:03:35.392Z,22.07
2018-05-11T06:04:07.504Z,22.11
2018-05-11T06:04:39.603Z,22.08
2018-05-11T06:05:11.846Z,22.16
2018-05-11T06:05:43.881Z,22.11
2018-05-11T06:06:15.916Z,22.16
2018-05-11T06:06:47.942Z,22.12
2018-05-11T06:07:20.008Z,22.22
2018-05-11T06:07:52.016Z,22.15
2018-05-11T06:08:24.053Z,22.15
2018-05-11T06:08:56.120Z,22.23
2018-05-11T06:09:28.130Z,22.23
2018-05-11T06:10:00.145Z,22.29
2018-05-11T06:10:32.206Z,22.29
2018-05-11T06:11:04.321Z,22.29
2018-05-11T06:11:36.327Z,22.24
2018-05-11T06:12:08.320Z,22.24
2018-05-11T06:12:40.333Z,22.23
2018-05-11T06:13:12.334Z,22.27
2018-05-11T06:13:44.340Z,22.23
2018-05-11T06:14:16.395Z,22.22
2018-05-11T06:14:48.468Z,22.29
2018-05-11T06:15:20.491Z,22.33
2018-05-11T06:15:52.525Z,22.3
2018-05-11T06:16:24.681Z,22.3
2018-05-11T06:16:56.812Z,22.34
2018-05-11T06:17:28.803Z,22.38
2018-05-11T06:18:00.859Z,22.34
2018-05-11T06:18:32.850Z,22.39
2018-05-11T06:19:05.057Z,22.38
2018-05-11T06:19:37.179Z,22.38
2018-05-11T06:20:09.209Z,22.38
2018-05-11T06:20:41.363Z,22.36
2018-05-11T06:21:13.405Z,22.38
2018-05-11T06:21:45.530Z,22.45
2018-05-11T06:22:17.585Z,22.42
2018-05-11T06:22:49.643Z,22.39
2018-05-11T06:23:21.685Z,22.46
2018-05-11T06:23:53.720Z,22.44
2018-05-11T06:24:25.740Z,22.45
2018-05-11T06:24:57.901Z,22.44
2018-05-11T06:25:29.804Z,22.42
2018-05-11T06:26:01.836Z,22.42
2018-05-11T06:26:33.899Z,22.46
2018-05-11T06:27:05.957Z,22.51
2018-05-11T06:27:37.953Z,22.48
2018-05-11T06:28:09.971Z,22.49
2018-05-11T06:28:41.983Z,22.49
2018-05-11T06:29:13.989Z,22.59
2018-05-11T06:29:46.050Z,22.45
2018-05-11T06:30:18.723Z,22.46
2018-05-11T06:30:50.767Z,22.52
2018-05-11T06:31:23.393Z,22.45
2018-05-11T06:31:55.457Z,22.6
2018-05-11T06:32:27.476Z,22.55
2018-05-11T06:32:59.685Z,22.6
2018-05-11T06:33:31.772Z,22.61
2018-05-11T06:34:03.810Z,22.59
2018-05-11T06:34:35.967Z,22.59
2018-05-11T06:35:08.009Z,22.6
2018-05-11T06:35:40.107Z,22.64
2018-05-11T06:36:12.180Z,22.64
2018-05-11T06:36:44.173Z,22.59
2018-05-11T06:37:16.171Z,22.63
2018-05-11T06:37:48.222Z,22.6
2018-05-11T06:38:20.308Z,22.61
2018-05-11T06:38:52.368Z,22.6
2018-05-11T06:39:24.399Z,22.6
2018-05-11T06:39:56.441Z,22.61
2018-05-11T06:40:28.554Z,22.66
2018-05-11T06:41:00.667Z,22.7
2018-05-11T06:41:32.860Z,22.75
2018-05-11T06:42:05.042Z,22.79
2018-05-11T06:42:37.070Z,22.67
2018-05-11T06:43:09.129Z,22.75
2018-05-11T06:43:41.262Z,22.76
2018-05-11T06:44:13.305Z,22.78
2018-05-11T06:44:45.313Z,22.79
2018-05-11T06:45:17.318Z,22.71
2018-05-11T06:45:49.347Z,22.78
2018-05-11T06:46:21.378Z,22.81
2018-05-11T06:46:53.587Z,22.82
2018-05-11T06:47:25.622Z,22.88
2018-05-11T06:47:57.638Z,22.85
2018-05-11T06:48:29.670Z,22.78
2018-05-11T06:49:01.643Z,22.82
2018-05-11T06:49:33.688Z,22.82
2018-05-11T06:50:05.747Z,22.91
2018-05-11T06:50:37.837Z,22.91
2018-05-11T06:51:09.856Z,22.86
2018-05-11T06:51:41.899Z,22.89
2018-05-11T06:52:13.893Z,22.94
2018-05-11T06:52:45.918Z,22.89
2018-05-11T06:53:17.963Z,22.99
2018-05-11T06:53:49.968Z,22.94
2018-05-11T06:54:21.986Z,22.92